Airfield :
LOGIN :

Register | Disclaimer

   EN    FR    IT 

 










Legend :    VFR   Marginal VFR   IFR   Intensive IFR   Very Intensive IFR
Visi :
Ceiling :
>= 8 km
>= 3000ft
5 to 8 km
1000 to 3000 ft
1500m to 5 km
500 to 1000 ft
800 to 1500m
200 to 500 ft
< 800m
< 200 ft
Symbols :   Thunderstorms  Fog  Heavy snow  Heavy precipitations  Wind > 20 kt
SIGMETs :     Misc.  Thunderstorms  Icing  Turbulence  Mountain Waves  Volcanic Ashes







- Airport Elevation : 614 ft
- IATA code : CRL


EBCI - Charleroi

CURRENT METAR :
  • 100750Z 25008KT 9999 SCT006 BKN040 04/03 Q1023 TEMPO BKN006

EXPIRED METARs :
  • 100720Z 25007KT 9999 BKN027 04/03 Q1023 NOSIG
  • 100650Z 26006KT 230V290 9999 BKN027 04/03 Q1023 NOSIG
  • 100620Z 25008KT 9999 FEW037 04/03 Q1023 NOSIG
  • 100550Z 25008KT 9999 FEW037 04/03 Q1022 NOSIG
  • 100520Z 25008KT 9999 FEW037 04/02 Q1022 NOSIG

TAF TAF EBCI
Valid from the 10 at 06:00 until the 11 at 12:00 UTC


100510Z 1006/1112 28008KT 9999 FEW020 SCT040
PROB30
TEMPO 1007/1009 3500 -RADZ BKN014
No reported NOTAMs for that airfield.



MET'MAP, your aeronautical weather chart ! - Copyright ORBIFLY December 2007 - Disclaimer

ORBIFLY MET'MAP TEAM :

Programming & Development : Alexandra Zaïnal
Concept & Development : Baudouin d'Aumeries
Co-Development & Prog : Marc-Olivier Méhu
Technical & hardware support : Manuel Goepfert

Contact : metmap@orbifly.com




SOURCES & CREDITS :

   NOAA